createdAt,value
2023-04-15T00:00:59.872Z,99.90
2023-04-15T00:03:28.738Z,99.90
2023-04-15T00:05:57.558Z,99.90
2023-04-15T00:08:25.965Z,99.90
2023-04-15T00:10:54.742Z,99.90
2023-04-15T00:13:24.443Z,99.90
2023-04-15T00:15:52.759Z,99.90
2023-04-15T00:18:20.997Z,99.90
2023-04-15T00:20:49.480Z,99.90
2023-04-15T00:23:18.024Z,99.90
2023-04-15T00:25:46.974Z,99.90
2023-04-15T00:28:15.373Z,99.90
2023-04-15T00:30:45.815Z,99.90
2023-04-15T00:33:14.844Z,99.90
2023-04-15T00:35:43.182Z,99.90
2023-04-15T00:38:11.523Z,99.90
2023-04-15T00:40:40.250Z,99.90
2023-04-15T00:43:08.630Z,99.90
2023-04-15T00:45:37.411Z,99.90
2023-04-15T00:48:07.286Z,99.90
2023-04-15T00:50:35.724Z,99.90
2023-04-15T00:53:04.069Z,99.90
2023-04-15T00:55:33.457Z,99.90
2023-04-15T00:58:01.717Z,99.90
2023-04-15T01:00:31.316Z,99.90
2023-04-15T01:03:00.437Z,99.90
2023-04-15T01:05:31.428Z,99.90
2023-04-15T01:07:59.823Z,99.90
2023-04-15T01:10:28.556Z,99.90
2023-04-15T01:12:56.902Z,99.90
2023-04-15T01:15:27.551Z,99.90
2023-04-15T01:17:56.741Z,99.90
2023-04-15T01:20:25.299Z,99.90
2023-04-15T01:22:56.711Z,99.90
2023-04-15T01:25:33.389Z,99.90
2023-04-15T01:28:02.397Z,99.90
2023-04-15T01:30:34.893Z,99.90
2023-04-15T01:33:03.206Z,99.90
2023-04-15T01:35:32.193Z,99.90
2023-04-15T01:38:06.231Z,99.90
2023-04-15T01:40:36.269Z,99.90
2023-04-15T01:43:04.957Z,99.90
2023-04-15T01:45:33.326Z,99.90
2023-04-15T01:48:01.673Z,99.90
2023-04-15T01:50:30.321Z,99.90
2023-04-15T01:52:58.652Z,99.90
2023-04-15T01:55:27.121Z,99.90
2023-04-15T01:57:56.913Z,99.90
2023-04-15T02:00:25.318Z,99.80
2023-04-15T02:02:54.045Z,99.90
2023-04-15T02:05:22.370Z,99.80
2023-04-15T02:07:51.165Z,99.80
2023-04-15T02:10:19.558Z,99.80
2023-04-15T02:12:47.893Z,99.80
2023-04-15T02:15:17.625Z,99.80
2023-04-15T02:17:50.978Z,99.70
2023-04-15T02:20:21.160Z,99.70
2023-04-15T02:22:49.731Z,99.70
2023-04-15T02:25:18.280Z,99.60
2023-04-15T02:27:46.561Z,99.60
2023-04-15T02:30:14.831Z,99.50
2023-04-15T02:32:45.203Z,99.50
2023-04-15T02:35:13.763Z,99.40
2023-04-15T02:37:45.807Z,99.40
2023-04-15T02:40:14.910Z,99.40
2023-04-15T02:42:44.303Z,99.40
2023-04-15T02:45:14.738Z,99.40
2023-04-15T02:47:46.037Z,99.30
2023-04-15T02:50:15.231Z,99.20
2023-04-15T02:52:44.751Z,99.10
2023-04-15T02:55:13.397Z,99.10
2023-04-15T02:57:41.905Z,99.10
2023-04-15T03:00:12.873Z,99.00
2023-04-15T03:02:47.252Z,99.00
2023-04-15T03:05:16.335Z,99.00
2023-04-15T03:07:53.532Z,98.90
2023-04-15T03:10:23.064Z,98.90
2023-04-15T03:12:51.349Z,98.80
2023-04-15T03:15:23.120Z,98.70
2023-04-15T03:17:55.165Z,98.70
2023-04-15T03:20:23.521Z,98.80
2023-04-15T03:22:51.946Z,98.70
2023-04-15T03:25:22.246Z,98.60
2023-04-15T03:27:50.567Z,98.60
2023-04-15T03:30:19.442Z,98.70
2023-04-15T03:32:47.986Z,98.60
2023-04-15T03:35:18.293Z,98.60
2023-04-15T03:37:46.702Z,98.50
2023-04-15T03:40:15.023Z,98.60
2023-04-15T03:42:43.367Z,98.50
2023-04-15T03:45:12.633Z,98.40
2023-04-15T03:47:41.012Z,98.50
2023-04-15T03:50:09.807Z,98.50
2023-04-15T03:52:39.529Z,98.50
2023-04-15T03:55:08.586Z,98.40
2023-04-15T03:57:39.073Z,98.40
2023-04-15T04:00:10.213Z,98.40
2023-04-15T04:02:41.171Z,98.40
2023-04-15T04:05:10.636Z,98.30
2023-04-15T04:07:40.642Z,98.20
2023-04-15T04:10:09.688Z,98.20
2023-04-15T04:12:37.927Z,98.20
2023-04-15T04:15:07.003Z,98.10
2023-04-15T04:17:35.881Z,98.10
2023-04-15T04:20:05.752Z,98.00
2023-04-15T04:22:41.281Z,97.90
2023-04-15T04:25:11.349Z,97.90
2023-04-15T04:27:39.690Z,97.90
2023-04-15T04:30:09.264Z,97.90
2023-04-15T04:32:37.726Z,97.90
2023-04-15T04:35:07.171Z,97.80
2023-04-15T04:37:35.588Z,97.90
2023-04-15T04:40:06.014Z,97.90
2023-04-15T04:42:34.312Z,97.90
2023-04-15T04:45:02.641Z,97.90
2023-04-15T04:47:31.408Z,97.90
2023-04-15T04:49:59.629Z,97.90
2023-04-15T04:52:27.944Z,97.90
2023-04-15T04:54:56.332Z,97.80
2023-04-15T04:57:25.956Z,97.70
2023-04-15T04:59:54.161Z,97.70
2023-04-15T05:02:22.702Z,97.70
2023-04-15T05:04:54.402Z,97.70
2023-04-15T05:07:24.046Z,97.60
2023-04-15T05:09:52.485Z,97.50
2023-04-15T05:12:20.771Z,97.40
2023-04-15T05:14:50.462Z,97.30
2023-04-15T05:17:18.897Z,97.30
2023-04-15T05:19:47.367Z,97.30
2023-04-15T05:24:44.274Z,96.80
2023-04-15T05:27:12.746Z,97.10
2023-04-15T05:29:41.039Z,97.20
2023-04-15T05:32:10.823Z,97.00
2023-04-15T05:34:39.015Z,96.80
2023-04-15T05:37:07.396Z,96.70
2023-04-15T05:39:35.754Z,96.60
2023-04-15T05:42:05.950Z,96.10
2023-04-15T05:44:34.407Z,96.30
2023-04-15T05:47:03.636Z,96.20
2023-04-15T05:49:33.384Z,96.10
2023-04-15T05:52:01.665Z,96.10
2023-04-15T05:54:30.000Z,95.60
2023-04-15T05:56:59.011Z,95.90
2023-04-15T05:59:28.367Z,95.70
2023-04-15T06:01:57.220Z,95.80
2023-04-15T06:04:25.638Z,95.80
2023-04-15T06:06:55.411Z,95.60
2023-04-15T06:09:23.725Z,95.60
2023-04-15T06:11:53.236Z,95.50
2023-04-15T06:14:21.629Z,95.50
2023-04-15T06:16:49.847Z,95.40
2023-04-15T06:19:18.451Z,95.30
2023-04-15T06:21:46.898Z,95.30
2023-04-15T06:24:16.666Z,95.40
2023-04-15T06:26:44.935Z,95.20
2023-04-15T06:29:13.181Z,95.00
2023-04-15T06:31:41.594Z,95.30
2023-04-15T06:34:09.953Z,94.80
2023-04-15T06:36:38.490Z,94.70
2023-04-15T06:39:06.749Z,94.70
2023-04-15T06:41:37.250Z,94.70
2023-04-15T06:44:06.095Z,94.60
2023-04-15T06:46:34.318Z,94.50
2023-04-15T06:49:03.632Z,94.40
2023-04-15T06:51:32.815Z,94.50
2023-04-15T06:54:02.111Z,94.40
2023-04-15T06:56:31.050Z,94.40
2023-04-15T06:59:00.907Z,94.20
2023-04-15T07:01:29.545Z,94.00
2023-04-15T07:03:57.994Z,93.90
2023-04-15T07:06:26.219Z,94.00
2023-04-15T07:08:55.746Z,93.80
2023-04-15T07:11:24.014Z,93.60
2023-04-15T07:13:52.656Z,93.50
2023-04-15T07:16:22.872Z,93.50
2023-04-15T07:18:51.259Z,93.40
2023-04-15T07:21:19.495Z,93.50
2023-04-15T07:23:47.639Z,93.30
2023-04-15T07:26:16.008Z,93.30
2023-04-15T07:28:44.202Z,93.20
2023-04-15T07:31:12.505Z,93.10
2023-04-15T07:33:42.265Z,93.20
2023-04-15T07:36:11.610Z,93.10
2023-04-15T07:38:40.248Z,93.00
2023-04-15T07:41:09.283Z,93.10
2023-04-15T07:43:37.483Z,92.60
2023-04-15T07:46:06.975Z,92.60
2023-04-15T07:48:37.411Z,92.60
2023-04-15T07:51:08.619Z,92.60
2023-04-15T07:53:37.405Z,92.50
2023-04-15T07:56:06.726Z,92.40
2023-04-15T07:58:34.908Z,92.50
2023-04-15T08:01:03.295Z,92.60
2023-04-15T08:03:32.021Z,92.20
2023-04-15T08:06:00.426Z,92.20
2023-04-15T08:08:30.105Z,92.00
2023-04-15T08:10:58.802Z,91.90
2023-04-15T08:13:28.125Z,92.00
2023-04-15T08:16:20.829Z,91.70
2023-04-15T08:18:50.126Z,91.80
2023-04-15T08:21:19.308Z,91.90
2023-04-15T08:23:50.770Z,91.50
2023-04-15T08:26:19.482Z,91.30
2023-04-15T08:28:48.457Z,91.40
2023-04-15T08:31:18.032Z,91.20
2023-04-15T08:33:46.931Z,91.40
2023-04-15T08:36:15.174Z,91.30
2023-04-15T08:38:45.636Z,91.40
2023-04-15T08:41:22.174Z,91.40
2023-04-15T08:43:55.096Z,91.20
2023-04-15T08:46:24.432Z,91.30
2023-04-15T08:48:53.552Z,91.40
2023-04-15T08:51:23.902Z,91.30
2023-04-15T08:53:53.395Z,91.30
2023-04-15T08:56:26.974Z,91.30
2023-04-15T08:58:55.773Z,91.40
2023-04-15T09:01:24.688Z,91.20
2023-04-15T09:03:54.607Z,91.40
2023-04-15T09:06:23.442Z,91.60
2023-04-15T09:08:52.993Z,91.40
2023-04-15T09:11:23.363Z,91.20
2023-04-15T09:13:52.315Z,91.40
2023-04-15T09:16:20.721Z,91.30
2023-04-15T09:18:49.127Z,91.20
2023-04-15T09:21:19.257Z,91.20
2023-04-15T09:23:58.413Z,91.40
2023-04-15T09:26:40.248Z,91.20
2023-04-15T09:29:09.863Z,91.20
2023-04-15T09:31:38.640Z,91.20
2023-04-15T09:34:07.378Z,91.00
2023-04-15T09:36:53.953Z,91.00
2023-04-15T09:39:22.615Z,91.10
2023-04-15T09:44:44.815Z,91.00
2023-04-15T09:47:28.969Z,91.20
2023-04-15T09:49:58.524Z,91.20
2023-04-15T09:52:27.442Z,91.00
2023-04-15T09:54:56.541Z,91.00
2023-04-15T09:57:25.255Z,91.10
2023-04-15T09:59:55.026Z,91.10
2023-04-15T10:02:23.536Z,91.10
2023-04-15T10:04:53.785Z,91.10
2023-04-15T10:07:23.738Z,90.90
2023-04-15T10:09:53.084Z,90.60
2023-04-15T10:12:21.861Z,90.60
2023-04-15T10:14:56.382Z,90.50
2023-04-15T10:17:24.704Z,90.50
2023-04-15T10:19:55.722Z,90.30
2023-04-15T10:22:24.579Z,90.30
2023-04-15T10:24:53.760Z,90.30
2023-04-15T10:27:23.269Z,90.40
2023-04-15T10:29:52.545Z,90.50
2023-04-15T10:32:23.953Z,90.50
2023-04-15T10:34:54.654Z,90.50
2023-04-15T10:37:24.151Z,90.50
2023-04-15T10:39:52.455Z,90.70
2023-04-15T10:42:21.392Z,90.70
2023-04-15T10:44:51.893Z,90.60
2023-04-15T10:47:22.559Z,90.70
2023-04-15T10:49:52.953Z,90.70
2023-04-15T10:52:25.916Z,90.60
2023-04-15T10:55:04.539Z,90.60
2023-04-15T10:57:38.997Z,90.50
2023-04-15T11:00:14.904Z,90.60
2023-04-15T11:02:47.833Z,90.50
2023-04-15T11:05:16.917Z,90.60
2023-04-15T11:07:54.730Z,90.60
2023-04-15T11:10:56.529Z,90.70
2023-04-15T11:13:29.564Z,90.60
2023-04-15T11:16:02.733Z,90.70
2023-04-15T11:18:34.538Z,90.60
2023-04-15T11:21:05.589Z,90.40
2023-04-15T11:23:39.364Z,90.50
2023-04-15T11:26:11.919Z,90.40
2023-04-15T11:28:42.264Z,90.40
2023-04-15T11:31:12.410Z,90.50
2023-04-15T11:33:47.852Z,90.40
2023-04-15T11:36:16.218Z,90.40
2023-04-15T11:38:45.942Z,90.50
2023-04-15T11:41:14.430Z,90.70
2023-04-15T11:43:42.818Z,91.10
2023-04-15T11:46:11.049Z,91.40
2023-04-15T11:48:45.570Z,91.50
2023-04-15T11:51:15.106Z,91.70
2023-04-15T11:53:46.147Z,91.80
2023-04-15T11:56:20.284Z,91.90
2023-04-15T11:58:50.935Z,92.00
2023-04-15T12:01:19.798Z,91.80
2023-04-15T12:03:50.789Z,91.90
2023-04-15T12:06:20.587Z,91.90
2023-04-15T12:09:11.135Z,92.00
2023-04-15T12:11:45.386Z,92.20
2023-04-15T12:14:22.806Z,92.20
2023-04-15T12:16:55.104Z,92.20
2023-04-15T12:19:29.509Z,92.10
2023-04-15T12:22:01.473Z,92.00
2023-04-15T12:24:32.158Z,91.90
2023-04-15T12:27:03.793Z,91.80
2023-04-15T12:29:32.095Z,91.50
2023-04-15T12:32:07.317Z,91.60
2023-04-15T12:34:38.563Z,91.50
2023-04-15T12:37:09.511Z,91.40
2023-04-15T12:39:39.494Z,91.50
2023-04-15T12:42:08.372Z,91.40
2023-04-15T12:44:37.343Z,91.30
2023-04-15T12:47:06.002Z,91.20
2023-04-15T12:49:34.659Z,91.20
2023-04-15T12:52:04.693Z,91.20
2023-04-15T12:54:33.491Z,90.90
2023-04-15T12:57:04.715Z,90.60
2023-04-15T12:59:35.102Z,90.40
2023-04-15T13:02:04.027Z,90.30
2023-04-15T13:04:32.503Z,89.30
2023-04-15T13:07:00.988Z,89.30
2023-04-15T13:09:31.093Z,89.20
2023-04-15T13:11:59.370Z,88.70
2023-04-15T13:14:28.206Z,88.20
2023-04-15T13:16:56.500Z,88.20
2023-04-15T13:19:25.519Z,87.80
2023-04-15T13:21:53.897Z,86.90
2023-04-15T13:24:22.158Z,86.60
2023-04-15T13:26:52.186Z,86.60
2023-04-15T13:29:20.495Z,86.40
2023-04-15T13:31:48.771Z,86.70
2023-04-15T13:34:16.997Z,86.60
2023-04-15T13:36:46.068Z,87.00
2023-04-15T13:39:14.332Z,87.00
2023-04-15T13:41:42.657Z,87.30
2023-04-15T13:44:12.459Z,87.00
2023-04-15T13:46:41.950Z,87.80
2023-04-15T13:49:10.187Z,88.40
2023-04-15T13:51:38.518Z,88.50
2023-04-15T13:54:06.848Z,88.60
2023-04-15T13:56:35.272Z,89.30
2023-04-15T13:59:03.893Z,89.60
2023-04-15T14:01:33.764Z,89.80
2023-04-15T14:04:02.612Z,90.20
2023-04-15T14:06:32.201Z,90.60
2023-04-15T14:09:00.516Z,90.60
2023-04-15T14:11:30.038Z,90.50
2023-04-15T14:13:58.349Z,90.70
2023-04-15T14:16:26.744Z,90.60
2023-04-15T14:18:56.657Z,90.50
2023-04-15T14:21:24.951Z,90.70
2023-04-15T14:23:53.457Z,90.80
2023-04-15T14:26:21.799Z,90.60
2023-04-15T14:28:50.093Z,90.40
2023-04-15T14:31:18.562Z,90.40
2023-04-15T14:33:47.371Z,89.30
2023-04-15T14:36:17.063Z,88.50
2023-04-15T14:41:13.805Z,89.20
2023-04-15T14:43:42.107Z,88.40
2023-04-15T14:46:11.512Z,89.00
2023-04-15T14:48:39.850Z,88.00
2023-04-15T14:51:08.355Z,87.30
2023-04-15T14:53:37.946Z,87.50
2023-04-15T14:56:06.914Z,87.00
2023-04-15T14:58:35.145Z,87.00
2023-04-15T15:01:04.334Z,87.30
2023-04-15T15:03:32.847Z,87.10
2023-04-15T15:06:01.271Z,88.20
2023-04-15T15:08:29.996Z,87.30
2023-04-15T15:10:59.811Z,87.50
2023-04-15T15:13:28.004Z,87.50
2023-04-15T15:15:56.350Z,88.60
2023-04-15T15:18:25.625Z,88.70
2023-04-15T15:20:53.883Z,89.90
2023-04-15T15:23:22.081Z,90.30
2023-04-15T15:25:50.491Z,90.90
2023-04-15T15:28:21.740Z,91.20
2023-04-15T15:30:50.203Z,91.40
2023-04-15T15:33:18.483Z,91.90
2023-04-15T15:35:46.964Z,92.20
2023-04-15T15:38:15.263Z,92.30
2023-04-15T15:40:43.652Z,92.60
2023-04-15T15:43:11.881Z,92.80
2023-04-15T15:45:41.966Z,93.00
2023-04-15T15:48:10.243Z,93.30
2023-04-15T15:50:38.498Z,93.50
2023-04-15T15:53:06.787Z,93.70
2023-04-15T15:55:35.300Z,93.90
2023-04-15T15:58:03.597Z,94.00
2023-04-15T16:00:32.554Z,94.30
2023-04-15T16:03:07.195Z,94.30
2023-04-15T16:05:36.425Z,96.20
2023-04-15T16:08:04.769Z,94.50
2023-04-15T16:10:33.215Z,94.60
2023-04-15T16:13:01.996Z,94.60
2023-04-15T16:15:30.483Z,94.70
2023-04-15T16:17:58.838Z,94.70
2023-04-15T16:20:28.913Z,94.80
2023-04-15T16:22:58.171Z,94.90
2023-04-15T16:25:26.557Z,94.90
2023-04-15T16:28:05.382Z,94.90
2023-04-15T16:30:37.976Z,94.90
2023-04-15T16:33:07.334Z,95.10
2023-04-15T16:35:37.498Z,95.10
2023-04-15T16:38:06.421Z,95.10
2023-04-15T16:40:34.956Z,95.00
2023-04-15T16:43:04.353Z,95.10
2023-04-15T16:45:32.579Z,94.70
2023-04-15T16:48:00.924Z,94.80
2023-04-15T16:50:29.509Z,94.70
2023-04-15T16:52:59.147Z,94.40
2023-04-15T16:55:27.889Z,94.50
2023-04-15T16:58:02.246Z,94.50
2023-04-15T17:00:32.375Z,94.30
2023-04-15T17:03:01.715Z,94.10
2023-04-15T17:05:30.611Z,93.60
2023-04-15T17:08:00.482Z,93.60
2023-04-15T17:10:29.319Z,93.70
2023-04-15T17:12:58.383Z,93.90
2023-04-15T17:15:27.368Z,94.30
2023-04-15T17:17:55.826Z,94.50
2023-04-15T17:20:24.113Z,94.50
2023-04-15T17:22:52.389Z,95.00
2023-04-15T17:25:22.193Z,94.80
2023-04-15T17:27:50.558Z,94.90
2023-04-15T17:30:18.850Z,95.00
2023-04-15T17:32:47.226Z,95.20
2023-04-15T17:35:15.639Z,95.30
2023-04-15T17:37:45.173Z,95.50
2023-04-15T17:40:14.897Z,95.70
2023-04-15T17:42:44.551Z,95.80
2023-04-15T17:45:13.200Z,95.90
2023-04-15T17:47:43.393Z,96.00
2023-04-15T17:50:11.885Z,96.10
2023-04-15T17:52:40.287Z,96.10
2023-04-15T17:55:09.529Z,96.30
2023-04-15T17:57:37.910Z,96.20
2023-04-15T18:00:11.980Z,96.20
2023-04-15T18:02:43.768Z,96.10
2023-04-15T18:05:12.519Z,96.30
2023-04-15T18:07:41.194Z,96.30
2023-04-15T18:10:11.129Z,96.40
2023-04-15T18:12:39.592Z,96.40
2023-04-15T18:15:10.654Z,96.10
2023-04-15T18:17:39.076Z,95.90
2023-04-15T18:20:08.540Z,95.90
2023-04-15T18:22:36.912Z,96.20
2023-04-15T18:25:05.986Z,96.10
2023-04-15T18:27:35.788Z,96.30
2023-04-15T18:30:04.200Z,96.00
2023-04-15T18:32:33.814Z,96.10
2023-04-15T18:35:02.125Z,96.10
2023-04-15T18:37:30.502Z,96.10
2023-04-15T18:39:59.153Z,96.30
2023-04-15T18:42:27.509Z,96.30
2023-04-15T18:44:55.903Z,96.40
2023-04-15T18:47:26.480Z,96.50
2023-04-15T18:49:58.379Z,96.40
2023-04-15T18:52:26.809Z,96.50
2023-04-15T18:54:55.031Z,96.50
2023-04-15T18:57:31.119Z,96.60
2023-04-15T19:00:01.487Z,96.50
2023-04-15T19:02:30.005Z,96.50
2023-04-15T19:05:01.773Z,96.60
2023-04-15T19:07:31.509Z,96.50
2023-04-15T19:09:59.928Z,96.50
2023-04-15T19:12:28.645Z,96.60
2023-04-15T19:14:56.914Z,96.60
2023-04-15T19:17:25.575Z,97.00
2023-04-15T19:19:54.057Z,96.70
2023-04-15T19:22:23.883Z,96.70
2023-04-15T19:24:52.944Z,96.80
2023-04-15T19:27:21.221Z,96.80
2023-04-15T19:29:49.513Z,96.90
2023-04-15T19:32:18.216Z,96.90
2023-04-15T19:34:46.495Z,97.00
2023-04-15T19:37:14.957Z,97.00
2023-04-15T19:39:44.696Z,97.00
2023-04-15T19:42:12.963Z,97.10
2023-04-15T19:44:42.798Z,97.00
2023-04-15T19:47:11.335Z,97.10
2023-04-15T19:49:39.772Z,97.00
2023-04-15T19:52:08.312Z,97.00
2023-04-15T19:54:36.517Z,97.10
2023-04-15T19:57:06.210Z,97.20
2023-04-15T19:59:34.438Z,97.20
2023-04-15T20:02:03.354Z,97.20
2023-04-15T20:04:31.884Z,97.20
2023-04-15T20:07:00.244Z,97.30
2023-04-15T20:09:28.499Z,97.30
2023-04-15T20:12:09.621Z,97.40
2023-04-15T20:14:46.576Z,97.50
2023-04-15T20:17:16.217Z,97.40
2023-04-15T20:19:44.708Z,97.50
2023-04-15T20:22:13.086Z,97.50
2023-04-15T20:24:41.280Z,97.60
2023-04-15T20:27:09.550Z,97.50
2023-04-15T20:29:38.151Z,97.60
2023-04-15T20:32:11.318Z,97.70
2023-04-15T20:34:40.100Z,97.70
2023-04-15T20:37:08.547Z,97.70
2023-04-15T20:39:36.800Z,97.70
2023-04-15T20:42:05.301Z,97.80
2023-04-15T20:44:34.570Z,98.00
2023-04-15T20:47:02.941Z,98.20
2023-04-15T20:49:36.205Z,98.30
2023-04-15T20:52:05.253Z,98.40
2023-04-15T20:54:33.611Z,98.50
2023-04-15T20:57:02.601Z,98.60
2023-04-15T20:59:32.131Z,98.60
2023-04-15T21:02:00.586Z,98.80
2023-04-15T21:04:29.010Z,98.50
2023-04-15T21:06:58.706Z,98.30
2023-04-15T21:09:27.013Z,98.70
2023-04-15T21:12:01.222Z,98.80
2023-04-15T21:14:31.039Z,98.90
2023-04-15T21:16:59.475Z,98.90
2023-04-15T21:19:27.753Z,98.70
2023-04-15T21:21:56.087Z,98.80
2023-04-15T21:24:26.330Z,98.90
2023-04-15T21:26:54.821Z,98.90
2023-04-15T21:29:23.128Z,99.00
2023-04-15T21:31:51.512Z,98.90
2023-04-15T21:34:19.905Z,98.90
2023-04-15T21:36:50.185Z,98.90
2023-04-15T21:39:18.529Z,98.80
2023-04-15T21:41:48.184Z,98.80
2023-04-15T21:44:16.410Z,99.00
2023-04-15T21:46:45.651Z,99.00
2023-04-15T21:49:14.919Z,99.00
2023-04-15T21:51:43.167Z,99.00
2023-04-15T21:54:11.740Z,98.80
2023-04-15T21:56:39.997Z,98.80
2023-04-15T21:59:09.723Z,98.70
2023-04-15T22:01:38.005Z,98.70
2023-04-15T22:04:07.497Z,98.70
2023-04-15T22:06:36.152Z,98.70
2023-04-15T22:09:04.594Z,98.80
2023-04-15T22:11:32.937Z,98.80
2023-04-15T22:14:01.328Z,98.80
2023-04-15T22:16:30.949Z,98.90
2023-04-15T22:18:59.174Z,98.90
2023-04-15T22:21:27.808Z,98.90
2023-04-15T22:24:38.553Z,99.00
2023-04-15T22:26:44.727Z,99.00
2023-04-15T22:29:13.067Z,99.00
2023-04-15T22:31:42.986Z,99.00
2023-04-15T22:34:11.310Z,98.90
2023-04-15T22:36:39.453Z,99.00
2023-04-15T22:39:07.798Z,99.00
2023-04-15T22:41:36.276Z,99.00
2023-04-15T22:44:04.557Z,98.90
2023-04-15T22:46:32.840Z,98.90
2023-04-15T22:49:02.720Z,98.80
2023-04-15T22:51:31.565Z,98.80
2023-04-15T22:53:59.772Z,98.80
2023-04-15T22:56:28.105Z,98.70
2023-04-15T22:58:56.474Z,98.70
2023-04-15T23:01:24.813Z,98.80
2023-04-15T23:03:57.473Z,98.80
2023-04-15T23:06:38.182Z,98.80
2023-04-15T23:09:06.629Z,98.80
2023-04-15T23:11:34.858Z,98.80
2023-04-15T23:14:03.191Z,98.70
2023-04-15T23:16:31.511Z,98.70
2023-04-15T23:18:59.722Z,98.70
2023-04-15T23:21:29.123Z,98.70
2023-04-15T23:23:58.786Z,98.70
2023-04-15T23:26:27.439Z,98.70
2023-04-15T23:28:55.631Z,98.60
2023-04-15T23:31:23.998Z,98.70
2023-04-15T23:33:52.267Z,98.80
2023-04-15T23:36:20.542Z,98.70
2023-04-15T23:38:49.102Z,98.70
2023-04-15T23:41:18.670Z,98.60
2023-04-15T23:43:47.036Z,98.60
2023-04-15T23:46:15.309Z,98.60
2023-04-15T23:48:43.568Z,98.50
2023-04-15T23:51:11.879Z,98.60
2023-04-15T23:53:40.119Z,98.60
2023-04-15T23:56:08.903Z,98.60
2023-04-15T23:58:38.501Z,98.60
